Share

Ary, KY

KKYJACKS3 Elev 994 ft | 37.41 °N, 83.42 °W | Change Station

Current weather conditions updated 1 minute ago

Clear
Clear
55.0 °F
Feels Like 55.0 °F
N
0.0
Wind Variable Wind from North
Gusts 0.0 mph
Sunrise 6:51 AM
Sunset 8:12 PM
Moon Waning Gibbous

Tomorrow is forecast to be nearly the same temperature as today. A few showers developing late tomorrow night.

Pressure 30.12 in
Visibility 10.0 miles
Clouds Clear
Dew Point 45 °F
Humidity 68%
Rainfall 0.00 in
Snow Depth Not available.
UV 0 out of 16
Pollen 10.30 out of 12
Air Quality Not available.
Flu Activity Sporadic
METAR KJKL 210253Z AUTO 00000KT 10SM CLR 20/M04 A3014 RMK AO2 SLP197 T02001044 51004

More Conditions Fewer Conditions

Pressure 30.12 in
Visibility 10.0 miles
Clouds Clear
Dew Point 45 °F
Humidity 68%
Rainfall 0.00 in
Snow Depth Not available.
UV 0 out of 16
Pollen 10.30 out of 12
Air Quality Not available.
Flu Activity Sporadic
METAR KJKL 210253Z AUTO 00000KT 10SM CLR 20/M04 A3014 RMK AO2 SLP197 T02001044 51004

More Conditions Fewer Conditions

10-Day Weather Forecast

Almanac

Astronomy

Apr. 20, 2014 Rise Set
Actual Time 6:51 AM EDT 8:12 PM EDT
Civil Twilight 6:23 AM EDT 8:39 PM EDT
Nautical Twilight 5:51 AM EDT 9:12 PM EDT
Astronomical Twilight 5:17 AM EDT 9:46 PM EDT
Moon 12:48 AM EDT (4/20) 11:12 AM EDT (4/20)
Length of Visible Light 14h 15m
Length of Day
13h 21m
Tomorrow will be 2m 13s longer.
Waning Gibbous, 64% of the Moon is Illuminated
Today
Waning Gibbous
Apr 22
Last Quarter
Apr 29
New
May 6
First Quarter
May 14
Full

Today's Extremes

State Highs State Lows

Community

  • Sun Pillar and Geese
    Sun Pillar and Geese
  • Showers on the Way
    Showers on the Way
  • Easter Morning Fog
    Easter Morning Fog
  • Easter Dance
    Easter Dance
  • spring skiing mount Baker WA
    spring skiing mount Baker WA

WunderPhotos

Upload Photos

1,703,534 photos uploaded!

WunderBlogs® & News

Nearby

Snow Depth

Station Depth Elevation
No new snow has been reported.

Coastal Water Temperatures

Place Temperature
No Stations Reporting

Earthquake Activity

City Distance Mag. Time & Date
No recent earthquake activity has been reported nearby.
Minimum magnitude displayed is 2.5.

Nearby Weather Stations

Station Location Temp. Dew Point Humidity Wind Precip. Elev Updated Type
Talbert, KY 55.0 °F 45 °F 68% North  at  0.0 mph 0.00 in / hr 994 ft 11:00 PM EDT Normal
RAWS JACKSON CO AP KY, Jackson, KY 68 °F 25 °F 20% SSE  at  1 mph 0.00 in / hr 1388 ft 10:15 PM EDT MADIS

Show More Stations Show Fewer Stations

What do you think?

We're not finished. Please let us know what you like, what you don't like, and what you are still missing.